createdAt,value
2018-08-10T00:00:58.362Z,100150.00
2018-08-10T00:03:27.519Z,100157.00
2018-08-10T00:05:56.687Z,100164.00
2018-08-10T00:08:25.844Z,100179.00
2018-08-10T00:10:55.016Z,100179.00
2018-08-10T00:13:24.182Z,100174.00
2018-08-10T00:15:53.346Z,100185.00
2018-08-10T00:18:23.826Z,100174.00
2018-08-10T00:20:53.014Z,100182.00
2018-08-10T00:23:22.252Z,100188.00
2018-08-10T00:25:51.748Z,100179.00
2018-08-10T00:28:20.983Z,100186.00
2018-08-10T00:30:50.224Z,100190.00
2018-08-10T00:33:19.361Z,100195.00
2018-08-10T00:35:48.541Z,100203.00
2018-08-10T00:38:17.682Z,100211.00
2018-08-10T00:40:46.811Z,100211.00
2018-08-10T00:43:15.945Z,100219.00
2018-08-10T00:45:45.067Z,100215.00
2018-08-10T00:48:14.268Z,100210.00
2018-08-10T00:50:43.363Z,100217.00
2018-08-10T00:53:12.482Z,100218.00
2018-08-10T00:55:41.622Z,100207.00
2018-08-10T00:58:10.852Z,100206.00
2018-08-10T01:00:40.215Z,100211.00
2018-08-10T01:03:09.370Z,100204.00
2018-08-10T01:05:38.493Z,100204.00
2018-08-10T01:08:07.635Z,100211.00
2018-08-10T01:10:36.940Z,100206.00
2018-08-10T01:13:06.383Z,100211.00
2018-08-10T01:15:35.572Z,100214.00
2018-08-10T01:18:04.823Z,100222.00
2018-08-10T01:20:34.099Z,100221.00
2018-08-10T01:23:06.155Z,100229.00
2018-08-10T01:25:35.549Z,100220.00
2018-08-10T01:28:05.410Z,100238.00
2018-08-10T01:30:35.633Z,100238.00
2018-08-10T01:33:04.793Z,100247.00
2018-08-10T01:35:34.032Z,100247.00
2018-08-10T01:38:03.599Z,100256.00
2018-08-10T01:40:32.735Z,100257.00
2018-08-10T01:43:01.896Z,100263.00
2018-08-10T01:45:31.019Z,100266.00
2018-08-10T01:48:00.207Z,100274.00
2018-08-10T01:50:29.388Z,100280.00
2018-08-10T01:52:58.578Z,100286.00
2018-08-10T01:55:27.722Z,100298.00
2018-08-10T01:57:56.973Z,100290.00
2018-08-10T02:00:26.170Z,100299.00
2018-08-10T02:02:55.324Z,100299.00
2018-08-10T02:05:24.525Z,100306.00
2018-08-10T02:07:53.720Z,100298.00
2018-08-10T02:10:22.919Z,100304.00
2018-08-10T02:12:56.568Z,100303.00
2018-08-10T02:15:25.763Z,100309.00
2018-08-10T02:17:54.947Z,100313.00
2018-08-10T02:20:25.377Z,100325.00
2018-08-10T02:22:54.537Z,100320.00
2018-08-10T02:25:23.987Z,100332.00
2018-08-10T02:27:53.241Z,100342.00
2018-08-10T02:30:23.533Z,100340.00
2018-08-10T02:32:53.053Z,100348.00
2018-08-10T02:35:22.307Z,100356.00
2018-08-10T02:37:51.461Z,100358.00
2018-08-10T02:47:10.435Z,100365.00
2018-08-10T02:49:39.681Z,100360.00
2018-08-10T02:52:08.929Z,100358.00
2018-08-10T02:54:38.049Z,100364.00
2018-08-10T02:57:06.884Z,100368.00
2018-08-10T02:59:36.053Z,100388.00
2018-08-10T03:02:05.247Z,100381.00
2018-08-10T03:04:34.433Z,100400.00
2018-08-10T03:07:03.601Z,100405.00
2018-08-10T03:09:32.777Z,100400.00
2018-08-10T03:12:01.888Z,100398.00
2018-08-10T03:14:31.025Z,100409.00
2018-08-10T03:17:00.244Z,100410.00
2018-08-10T03:19:29.378Z,100421.00
2018-08-10T03:21:58.513Z,100422.00
2018-08-10T03:24:27.712Z,100428.00
2018-08-10T03:26:56.966Z,100433.00
2018-08-10T03:29:26.094Z,100438.00
2018-08-10T03:31:55.230Z,100434.00
2018-08-10T03:34:24.453Z,100437.00
2018-08-10T03:36:53.693Z,100439.00
2018-08-10T03:39:22.911Z,100445.00
2018-08-10T03:41:52.165Z,100460.00
2018-08-10T03:44:21.320Z,100473.00
2018-08-10T03:46:50.500Z,100458.00
2018-08-10T03:49:19.673Z,100470.00
2018-08-10T03:51:48.851Z,100477.00
2018-08-10T03:54:18.015Z,100478.00
2018-08-10T03:56:47.153Z,100481.00
2018-08-10T03:59:16.319Z,100483.00
2018-08-10T04:01:45.498Z,100482.00
2018-08-10T04:04:14.652Z,100485.00
2018-08-10T04:06:43.789Z,100494.00
2018-08-10T04:09:13.540Z,100505.00
2018-08-10T04:11:43.446Z,100514.00
2018-08-10T04:14:12.634Z,100508.00
2018-08-10T04:16:41.961Z,100528.00
2018-08-10T04:19:11.146Z,100528.00
2018-08-10T04:21:40.325Z,100524.00
2018-08-10T04:24:09.463Z,100532.00
2018-08-10T04:26:38.680Z,100539.00
2018-08-10T04:29:07.846Z,100541.00
2018-08-10T04:31:37.002Z,100560.00
2018-08-10T04:34:06.420Z,100571.00
2018-08-10T04:36:35.743Z,100581.00
2018-08-10T04:39:10.021Z,100587.00
2018-08-10T04:41:39.276Z,100604.00
2018-08-10T04:44:08.406Z,100597.00
2018-08-10T04:46:37.684Z,100621.00
2018-08-10T04:49:07.313Z,100603.00
2018-08-10T04:51:36.561Z,100620.00
2018-08-10T04:54:05.778Z,100623.00
2018-08-10T04:56:35.041Z,100638.00
2018-08-10T04:59:04.360Z,100637.00
2018-08-10T05:01:33.494Z,100651.00
2018-08-10T05:04:02.679Z,100660.00
2018-08-10T05:06:31.818Z,100665.00
2018-08-10T05:09:00.950Z,100677.00
2018-08-10T05:11:30.079Z,100670.00
2018-08-10T05:13:59.240Z,100691.00
2018-08-10T05:16:28.402Z,100694.00
2018-08-10T05:18:57.533Z,100688.00
2018-08-10T05:21:26.717Z,100688.00
2018-08-10T05:23:55.901Z,100698.00
2018-08-10T05:26:25.005Z,100708.00
2018-08-10T05:28:54.168Z,100724.00
2018-08-10T05:31:23.307Z,100719.00
2018-08-10T05:33:52.510Z,100741.00
2018-08-10T05:36:21.636Z,100734.00
2018-08-10T05:38:50.742Z,100746.00
2018-08-10T05:41:20.019Z,100755.00
2018-08-10T05:43:49.179Z,100762.00
2018-08-10T05:46:18.356Z,100767.00
2018-08-10T05:48:47.524Z,100768.00
2018-08-10T05:51:16.708Z,100778.00
2018-08-10T05:53:45.917Z,100790.00
2018-08-10T05:56:15.209Z,100786.00
2018-08-10T05:58:44.412Z,100790.00
2018-08-10T06:01:13.568Z,100797.00
2018-08-10T06:03:43.412Z,100792.00
2018-08-10T06:06:12.571Z,100808.00
2018-08-10T06:08:41.702Z,100802.00
2018-08-10T06:11:10.975Z,100807.00
2018-08-10T06:13:40.162Z,100808.00
2018-08-10T06:16:09.310Z,100818.00
2018-08-10T06:18:38.541Z,100818.00
2018-08-10T06:21:09.269Z,100825.00
2018-08-10T06:23:38.529Z,100817.00
2018-08-10T06:26:07.729Z,100825.00
2018-08-10T06:28:38.593Z,100823.00
2018-08-10T06:31:07.843Z,100836.00
2018-08-10T06:33:37.016Z,100849.00
2018-08-10T06:36:06.596Z,100833.00
2018-08-10T06:38:36.410Z,100854.00
2018-08-10T06:41:05.537Z,100848.00
2018-08-10T06:43:37.314Z,100854.00
2018-08-10T06:46:06.878Z,100864.00
2018-08-10T06:48:36.148Z,100871.00
2018-08-10T06:51:05.299Z,100871.00
2018-08-10T06:53:34.374Z,100869.00
2018-08-10T06:56:03.696Z,100883.00
2018-08-10T06:58:32.919Z,100885.00
2018-08-10T07:01:02.288Z,100919.00
2018-08-10T07:03:31.526Z,100892.00
2018-08-10T07:06:00.707Z,100900.00
2018-08-10T07:08:29.909Z,100908.00
2018-08-10T07:11:28.938Z,100916.00
2018-08-10T07:13:58.151Z,100927.00
2018-08-10T07:16:27.321Z,100916.00
2018-08-10T07:18:56.505Z,100927.00
2018-08-10T07:21:25.680Z,100929.00
2018-08-10T07:23:54.988Z,100941.00
2018-08-10T07:26:24.384Z,100946.00
2018-08-10T07:28:53.526Z,100951.00
2018-08-10T07:31:22.718Z,100960.00
2018-08-10T07:33:51.984Z,100976.00
2018-08-10T07:36:21.175Z,100974.00
2018-08-10T07:38:50.394Z,100984.00
2018-08-10T07:41:19.788Z,100982.00
2018-08-10T07:43:49.301Z,100992.00
2018-08-10T07:46:18.508Z,100981.00
2018-08-10T07:48:48.532Z,100989.00
2018-08-10T07:51:19.792Z,100985.00
2018-08-10T07:53:49.397Z,100991.00
2018-08-10T07:56:18.648Z,101000.00
2018-08-10T07:58:47.837Z,101004.00
2018-08-10T08:01:16.967Z,100997.00
2018-08-10T08:03:46.122Z,101004.00
2018-08-10T08:06:15.390Z,101007.00
2018-08-10T08:08:44.582Z,101025.00
2018-08-10T08:11:13.848Z,101016.00
2018-08-10T08:13:43.097Z,101038.00
2018-08-10T08:16:12.421Z,101021.00
2018-08-10T08:18:41.543Z,101021.00
2018-08-10T08:21:12.936Z,101021.00
2018-08-10T08:23:42.025Z,101041.00
2018-08-10T08:26:11.322Z,101034.00
2018-08-10T08:28:40.630Z,101049.00
2018-08-10T08:31:10.042Z,101046.00
2018-08-10T08:33:56.264Z,101054.00
2018-08-10T08:36:25.636Z,101048.00
2018-08-10T08:39:23.174Z,101059.00
2018-08-10T08:41:52.315Z,101060.00
2018-08-10T08:45:41.615Z,101069.00
2018-08-10T08:48:10.869Z,101076.00
2018-08-10T08:50:41.928Z,101085.00
2018-08-10T08:53:11.398Z,101084.00
2018-08-10T08:55:46.128Z,101093.00
2018-08-10T08:58:15.384Z,101102.00
2018-08-10T09:00:44.675Z,101088.00
2018-08-10T09:03:31.731Z,101092.00
2018-08-10T09:06:01.477Z,101112.00
2018-08-10T09:08:30.672Z,101103.00
2018-08-10T09:11:01.010Z,101109.00
2018-08-10T09:14:54.416Z,101133.00
2018-08-10T09:17:23.727Z,101120.00
2018-08-10T09:19:53.045Z,101129.00
2018-08-10T09:22:22.657Z,101123.00
2018-08-10T09:24:52.157Z,101122.00
2018-08-10T09:27:21.596Z,101117.00
2018-08-10T09:29:51.486Z,101124.00
2018-08-10T09:32:21.245Z,101122.00
2018-08-10T09:34:51.130Z,101122.00
2018-08-10T09:37:20.356Z,101123.00
2018-08-10T09:39:50.125Z,101121.00
2018-08-10T09:42:19.515Z,101148.00
2018-08-10T09:44:48.771Z,101144.00
2018-08-10T09:47:17.934Z,101160.00
2018-08-10T09:49:48.386Z,101152.00
2018-08-10T09:52:17.678Z,101164.00
2018-08-10T09:55:29.416Z,101164.00
2018-08-10T09:58:01.443Z,101176.00
2018-08-10T10:00:35.987Z,101171.00
2018-08-10T10:03:24.450Z,101173.00
2018-08-10T10:05:56.337Z,101170.00
2018-08-10T10:08:26.245Z,101176.00
2018-08-10T10:10:55.797Z,101174.00
2018-08-10T10:13:25.416Z,101178.00
2018-08-10T10:15:54.777Z,101180.00
2018-08-10T10:18:24.041Z,101175.00
2018-08-10T10:20:53.536Z,101175.00
2018-08-10T10:23:22.724Z,101178.00
2018-08-10T10:25:52.246Z,101181.00
2018-08-10T10:28:21.512Z,101181.00
2018-08-10T10:30:50.705Z,101181.00
2018-08-10T10:33:20.333Z,101186.00
2018-08-10T10:35:49.445Z,101192.00
2018-08-10T10:38:18.605Z,101196.00
2018-08-10T10:40:47.814Z,101191.00
2018-08-10T10:43:18.598Z,101197.00
2018-08-10T10:45:47.715Z,101207.00
2018-08-10T10:48:16.923Z,101200.00
2018-08-10T10:50:46.097Z,101203.00
2018-08-10T10:53:15.332Z,101220.00
2018-08-10T10:55:44.464Z,101216.00
2018-08-10T10:58:13.775Z,101225.00
2018-08-10T11:00:43.956Z,101232.00
2018-08-10T11:03:13.448Z,101220.00
2018-08-10T11:05:43.454Z,101215.00
2018-08-10T11:08:12.753Z,101209.00
2018-08-10T11:10:42.028Z,101215.00
2018-08-10T11:13:11.186Z,101211.00
2018-08-10T11:15:40.402Z,101221.00
2018-08-10T11:18:10.005Z,101209.00
2018-08-10T11:20:39.347Z,101217.00
2018-08-10T11:23:08.615Z,101222.00
2018-08-10T11:25:38.034Z,101216.00
2018-08-10T11:28:07.467Z,101218.00
2018-08-10T11:30:36.664Z,101224.00
2018-08-10T11:33:05.923Z,101223.00
2018-08-10T11:35:35.133Z,101215.00
2018-08-10T11:38:04.288Z,101206.00
2018-08-10T11:40:33.423Z,101205.00
2018-08-10T11:43:02.565Z,101193.00
2018-08-10T11:45:31.802Z,101212.00
2018-08-10T11:48:01.180Z,101217.00
2018-08-10T11:50:30.360Z,101219.00
2018-08-10T11:52:59.772Z,101212.00
2018-08-10T11:55:28.933Z,101217.00
2018-08-10T11:57:58.155Z,101225.00
2018-08-10T12:00:27.433Z,101212.00
2018-08-10T12:02:56.737Z,101219.00
2018-08-10T12:05:25.939Z,101227.00
2018-08-10T12:07:55.365Z,101223.00
2018-08-10T12:10:24.545Z,101222.00
2018-08-10T12:12:53.816Z,101228.00
2018-08-10T12:15:23.072Z,101225.00
2018-08-10T12:17:52.303Z,101230.00
2018-08-10T12:20:21.662Z,101235.00
2018-08-10T12:22:50.932Z,101236.00
2018-08-10T12:25:20.242Z,101240.00
2018-08-10T12:27:49.524Z,101245.00
2018-08-10T12:30:20.157Z,101239.00
2018-08-10T12:32:49.272Z,101243.00
2018-08-10T12:35:18.638Z,101243.00
2018-08-10T12:37:48.172Z,101247.00
2018-08-10T12:40:18.827Z,101247.00
2018-08-10T12:42:48.081Z,101242.00
2018-08-10T12:45:17.341Z,101241.00
2018-08-10T12:47:46.704Z,101238.00
2018-08-10T12:50:16.478Z,101230.00
2018-08-10T12:52:45.559Z,101239.00
2018-08-10T12:55:21.208Z,101226.00
2018-08-10T12:57:50.439Z,101226.00
2018-08-10T13:00:20.303Z,101220.00
2018-08-10T13:02:49.494Z,101219.00
2018-08-10T13:05:18.696Z,101215.00
2018-08-10T13:07:47.849Z,101220.00
2018-08-10T13:10:17.218Z,101216.00
2018-08-10T13:12:46.434Z,101217.00
2018-08-10T13:15:15.660Z,101210.00
2018-08-10T13:17:44.984Z,101217.00
2018-08-10T13:20:15.116Z,101208.00
2018-08-10T13:22:44.970Z,101204.00
2018-08-10T13:25:14.110Z,101196.00
2018-08-10T13:27:43.389Z,101211.00
2018-08-10T13:30:13.506Z,101204.00
2018-08-10T13:32:42.686Z,101206.00
2018-08-10T13:35:11.846Z,101201.00
2018-08-10T13:37:41.020Z,101188.00
2018-08-10T13:40:10.185Z,101200.00
2018-08-10T13:42:39.397Z,101197.00
2018-08-10T13:45:12.204Z,101198.00
2018-08-10T13:47:41.897Z,101190.00
2018-08-10T13:50:14.002Z,101204.00
2018-08-10T13:52:43.334Z,101209.00
2018-08-10T13:55:17.361Z,101208.00
2018-08-10T13:57:47.534Z,101213.00
2018-08-10T14:00:23.021Z,101217.00
2018-08-10T14:02:54.275Z,101208.00
2018-08-10T14:05:24.264Z,101205.00
2018-08-10T14:07:53.982Z,101206.00
2018-08-10T14:10:23.444Z,101208.00
2018-08-10T14:12:52.658Z,101214.00
2018-08-10T14:15:21.809Z,101212.00
2018-08-10T14:17:51.088Z,101223.00
2018-08-10T14:20:20.319Z,101234.00
2018-08-10T14:22:49.796Z,101242.00
2018-08-10T14:25:19.229Z,101239.00
2018-08-10T14:27:48.423Z,101256.00
2018-08-10T14:30:17.659Z,101262.00
2018-08-10T14:32:46.960Z,101280.00
2018-08-10T14:35:16.301Z,101275.00
2018-08-10T14:37:45.782Z,101259.00
2018-08-10T14:40:15.146Z,101260.00
2018-08-10T14:42:44.414Z,101255.00
2018-08-10T14:45:15.259Z,101250.00
2018-08-10T14:47:44.816Z,101253.00
2018-08-10T14:50:15.387Z,101256.00
2018-08-10T14:52:45.108Z,101246.00
2018-08-10T14:55:15.988Z,101245.00
2018-08-10T14:57:45.348Z,101254.00
2018-08-10T15:00:19.227Z,101248.00
2018-08-10T15:02:49.522Z,101243.00
2018-08-10T15:05:19.051Z,101236.00
2018-08-10T15:07:48.318Z,101234.00
2018-08-10T15:10:18.233Z,101232.00
2018-08-10T15:12:50.325Z,101240.00
2018-08-10T15:15:20.212Z,101245.00
2018-08-10T15:17:49.658Z,101249.00
2018-08-10T15:20:20.552Z,101243.00
2018-08-10T15:22:49.944Z,101244.00
2018-08-10T15:25:19.302Z,101236.00
2018-08-10T15:27:49.754Z,101230.00
2018-08-10T15:30:20.162Z,101230.00
2018-08-10T15:32:49.988Z,101224.00
2018-08-10T15:35:19.725Z,101228.00
2018-08-10T15:37:50.849Z,101244.00
2018-08-10T15:40:20.751Z,101261.00
2018-08-10T15:42:50.398Z,101268.00
2018-08-10T15:45:20.069Z,101274.00
2018-08-10T15:47:49.664Z,101276.00
2018-08-10T15:50:19.615Z,101280.00
2018-08-10T15:52:49.199Z,101279.00
2018-08-10T15:55:18.913Z,101276.00
2018-08-10T15:57:48.315Z,101280.00
2018-08-10T16:00:20.947Z,101282.00
2018-08-10T16:02:50.347Z,101276.00
2018-08-10T16:05:19.677Z,101277.00
2018-08-10T16:07:49.044Z,101277.00
2018-08-10T16:10:18.191Z,101282.00
2018-08-10T16:12:47.350Z,101264.00
2018-08-10T16:15:17.848Z,101272.00
2018-08-10T16:17:47.229Z,101269.00
2018-08-10T16:20:19.672Z,101269.00
2018-08-10T16:22:49.012Z,101259.00
2018-08-10T16:25:18.248Z,101256.00
2018-08-10T16:27:47.591Z,101259.00
2018-08-10T16:30:17.575Z,101251.00
2018-08-10T16:32:47.116Z,101255.00
2018-08-10T16:35:16.738Z,101261.00
2018-08-10T16:37:46.941Z,101249.00
2018-08-10T16:40:17.848Z,101248.00
2018-08-10T16:42:47.036Z,101244.00
2018-08-10T16:45:16.324Z,101249.00
2018-08-10T16:47:45.499Z,101251.00
2018-08-10T16:50:18.984Z,101252.00
2018-08-10T16:52:48.160Z,101249.00
2018-08-10T16:55:20.369Z,101246.00
2018-08-10T16:57:50.200Z,101234.00
2018-08-10T17:00:21.012Z,101243.00
2018-08-10T17:02:50.286Z,101251.00
2018-08-10T17:05:19.551Z,101244.00
2018-08-10T17:07:48.784Z,101245.00
2018-08-10T17:10:18.008Z,101245.00
2018-08-10T17:12:47.273Z,101243.00
2018-08-10T17:15:18.335Z,101239.00
2018-08-10T17:17:48.366Z,101249.00
2018-08-10T17:20:18.259Z,101254.00
2018-08-10T17:22:47.399Z,101252.00
2018-08-10T17:25:19.121Z,101257.00
2018-08-10T17:27:48.396Z,101259.00
2018-08-10T17:30:18.925Z,101262.00
2018-08-10T17:32:48.127Z,101267.00
2018-08-10T17:35:17.880Z,101251.00
2018-08-10T17:37:47.564Z,101248.00
2018-08-10T17:40:16.746Z,101250.00
2018-08-10T17:42:46.062Z,101252.00
2018-08-10T17:45:16.989Z,101259.00
2018-08-10T17:47:46.287Z,101255.00
2018-08-10T17:50:19.370Z,101262.00
2018-08-10T17:52:50.841Z,101255.00
2018-08-10T17:55:22.015Z,101251.00
2018-08-10T17:57:51.548Z,101248.00
2018-08-10T18:00:25.165Z,101247.00
2018-08-10T18:02:55.380Z,101249.00
2018-08-10T18:05:24.571Z,101245.00
2018-08-10T18:07:53.823Z,101242.00
2018-08-10T18:10:23.496Z,101239.00
2018-08-10T18:12:52.953Z,101240.00
2018-08-10T18:15:22.374Z,101233.00
2018-08-10T18:17:51.648Z,101235.00
2018-08-10T18:20:22.377Z,101236.00
2018-08-10T18:22:52.628Z,101235.00
2018-08-10T18:25:23.096Z,101234.00
2018-08-10T18:27:52.454Z,101238.00
2018-08-10T18:30:24.995Z,101237.00
2018-08-10T18:32:54.561Z,101246.00
2018-08-10T18:35:23.932Z,101257.00
2018-08-10T18:37:54.021Z,101249.00
2018-08-10T18:40:24.418Z,101247.00
2018-08-10T18:42:53.801Z,101262.00
2018-08-10T18:45:23.255Z,101252.00
2018-08-10T18:47:53.949Z,101259.00
2018-08-10T18:50:23.255Z,101261.00
2018-08-10T18:52:52.760Z,101259.00
2018-08-10T18:55:23.812Z,101256.00
2018-08-10T18:57:56.541Z,101242.00
2018-08-10T19:00:27.118Z,101254.00
2018-08-10T19:02:56.799Z,101257.00
2018-08-10T19:05:28.476Z,101253.00
2018-08-10T19:07:58.009Z,101253.00
2018-08-10T19:10:29.390Z,101253.00
2018-08-10T19:12:58.771Z,101251.00
2018-08-10T19:15:28.012Z,101252.00
2018-08-10T19:17:57.492Z,101249.00
2018-08-10T19:20:27.015Z,101252.00
2018-08-10T19:22:56.466Z,101245.00
2018-08-10T19:25:26.098Z,101250.00
2018-08-10T19:27:56.274Z,101245.00
2018-08-10T19:30:26.360Z,101250.00
2018-08-10T19:32:56.476Z,101254.00
2018-08-10T19:35:26.201Z,101253.00
2018-08-10T19:37:55.714Z,101257.00
2018-08-10T19:40:25.183Z,101248.00
2018-08-10T19:42:54.568Z,101248.00
2018-08-10T19:45:23.904Z,101252.00
2018-08-10T19:47:53.526Z,101253.00
2018-08-10T19:50:23.959Z,101249.00
2018-08-10T19:52:54.561Z,101255.00
2018-08-10T19:55:23.782Z,101252.00
2018-08-10T19:57:54.070Z,101257.00
2018-08-10T20:00:23.988Z,101248.00
2018-08-10T20:02:53.392Z,101243.00
2018-08-10T20:05:22.712Z,101256.00
2018-08-10T20:07:52.386Z,101248.00
2018-08-10T20:10:21.659Z,101248.00
2018-08-10T20:12:51.069Z,101244.00
2018-08-10T20:15:20.447Z,101237.00
2018-08-10T20:17:49.579Z,101238.00
2018-08-10T20:20:19.645Z,101239.00
2018-08-10T20:22:48.930Z,101236.00
2018-08-10T20:25:18.221Z,101233.00
2018-08-10T20:27:47.622Z,101236.00
2018-08-10T20:30:18.709Z,101236.00
2018-08-10T20:32:48.507Z,101226.00
2018-08-10T20:35:19.653Z,101224.00
2018-08-10T20:37:49.148Z,101219.00
2018-08-10T20:40:20.453Z,101219.00
2018-08-10T20:42:49.848Z,101218.00
2018-08-10T20:45:20.200Z,101224.00
2018-08-10T20:47:49.504Z,101217.00
2018-08-10T20:50:23.937Z,101214.00
2018-08-10T20:52:53.421Z,101210.00
2018-08-10T20:55:22.828Z,101213.00
2018-08-10T20:57:52.400Z,101212.00
2018-08-10T21:00:21.867Z,101222.00
2018-08-10T21:02:51.025Z,101201.00
2018-08-10T21:05:20.579Z,101207.00
2018-08-10T21:07:49.738Z,101208.00
2018-08-10T21:10:18.917Z,101201.00
2018-08-10T21:12:48.519Z,101198.00
2018-08-10T21:15:17.894Z,101198.00
2018-08-10T21:17:47.926Z,101198.00
2018-08-10T21:20:19.146Z,101195.00
2018-08-10T21:22:48.752Z,101196.00
2018-08-10T21:25:17.941Z,101183.00
2018-08-10T21:27:47.300Z,101181.00
2018-08-10T21:30:18.876Z,101190.00
2018-08-10T21:32:48.860Z,101189.00
2018-08-10T21:35:18.178Z,101185.00
2018-08-10T21:37:47.512Z,101174.00
2018-08-10T21:40:16.800Z,101179.00
2018-08-10T21:42:46.007Z,101178.00
2018-08-10T21:45:15.337Z,101171.00
2018-08-10T21:47:44.530Z,101176.00
2018-08-10T21:50:14.779Z,101172.00
2018-08-10T21:52:44.789Z,101179.00
2018-08-10T21:55:13.957Z,101172.00
2018-08-10T21:57:43.124Z,101175.00
2018-08-10T22:00:53.331Z,101179.00
2018-08-10T22:03:23.852Z,101173.00
2018-08-10T22:05:53.011Z,101180.00
2018-08-10T22:08:23.704Z,101177.00
2018-08-10T22:10:53.028Z,101179.00
2018-08-10T22:13:27.566Z,101177.00
2018-08-10T22:16:02.081Z,101180.00
2018-08-10T22:18:36.561Z,101167.00
2018-08-10T22:21:05.795Z,101169.00
2018-08-10T22:23:34.913Z,101176.00
2018-08-10T22:26:04.095Z,101170.00
2018-08-10T22:28:33.307Z,101175.00
2018-08-10T22:31:02.483Z,101173.00
2018-08-10T22:33:31.649Z,101164.00
2018-08-10T22:36:00.857Z,101163.00
2018-08-10T22:38:30.050Z,101164.00
2018-08-10T22:40:59.337Z,101154.00
2018-08-10T22:43:28.484Z,101159.00
2018-08-10T22:45:57.657Z,101154.00
2018-08-10T22:48:26.870Z,101143.00
2018-08-10T22:50:56.073Z,101150.00
2018-08-10T22:53:25.287Z,101139.00
2018-08-10T22:55:54.464Z,101138.00
2018-08-10T22:58:23.631Z,101133.00
2018-08-10T23:00:52.825Z,101132.00
2018-08-10T23:03:21.984Z,101126.00
2018-08-10T23:05:51.126Z,101118.00
2018-08-10T23:08:20.316Z,101121.00
2018-08-10T23:10:49.484Z,101117.00
2018-08-10T23:13:18.637Z,101116.00
2018-08-10T23:15:47.781Z,101109.00
2018-08-10T23:18:16.962Z,101094.00
2018-08-10T23:20:46.100Z,101091.00
2018-08-10T23:23:15.223Z,101084.00
2018-08-10T23:25:44.356Z,101079.00
2018-08-10T23:28:13.480Z,101085.00
2018-08-10T23:30:42.686Z,101086.00
2018-08-10T23:33:11.825Z,101086.00
2018-08-10T23:35:40.972Z,101078.00
2018-08-10T23:38:10.155Z,101076.00
2018-08-10T23:40:39.316Z,101072.00
2018-08-10T23:43:08.684Z,101069.00
2018-08-10T23:45:37.887Z,101066.00
2018-08-10T23:48:07.115Z,101061.00
2018-08-10T23:50:36.276Z,101057.00
2018-08-10T23:53:05.716Z,101047.00
2018-08-10T23:55:34.854Z,101047.00
2018-08-10T23:58:04.029Z,101041.00
